createdAt,value
2019-03-13T00:01:01.209Z,33.60
2019-03-13T00:03:29.203Z,32.33
2019-03-13T00:05:57.012Z,32.43
2019-03-13T00:08:25.932Z,33.13
2019-03-13T00:10:54.787Z,31.67
2019-03-13T00:13:22.536Z,30.73
2019-03-13T00:15:50.348Z,32.23
2019-03-13T00:18:18.162Z,31.57
2019-03-13T00:20:46.100Z,34.00
2019-03-13T00:23:14.103Z,32.20
2019-03-13T00:25:41.906Z,32.47
2019-03-13T00:28:09.663Z,34.33
2019-03-13T00:30:37.491Z,32.77
2019-03-13T00:33:07.480Z,34.20
2019-03-13T00:35:35.418Z,33.30
2019-03-13T00:38:13.539Z,31.77
2019-03-13T00:40:51.805Z,33.33
2019-03-13T00:43:19.537Z,32.67
2019-03-13T00:45:49.619Z,32.73
2019-03-13T00:48:17.738Z,31.57
2019-03-13T00:50:45.504Z,32.03
2019-03-13T00:53:13.333Z,30.80
2019-03-13T00:55:41.179Z,30.80
2019-03-13T00:58:08.901Z,28.93
2019-03-13T01:01:13.937Z,30.37
2019-03-13T01:03:45.817Z,30.20
2019-03-13T01:06:21.418Z,30.30
2019-03-13T01:09:04.469Z,29.37
2019-03-13T01:11:32.265Z,30.90
2019-03-13T01:14:00.026Z,29.53
2019-03-13T01:16:28.293Z,30.73
2019-03-13T01:18:56.312Z,29.93
2019-03-13T01:21:24.015Z,30.30
2019-03-13T01:23:51.901Z,31.87
2019-03-13T01:26:19.739Z,31.13
2019-03-13T01:28:48.715Z,31.07
2019-03-13T01:31:35.968Z,31.93
2019-03-13T01:34:30.691Z,30.27
2019-03-13T01:36:58.409Z,30.20
2019-03-13T01:39:26.208Z,30.90
2019-03-13T01:41:53.959Z,32.00
2019-03-13T01:44:23.824Z,32.33
2019-03-13T01:46:51.533Z,31.87
2019-03-13T01:49:21.224Z,31.77
2019-03-13T01:51:49.009Z,33.17
2019-03-13T01:54:16.793Z,34.33
2019-03-13T01:56:44.692Z,34.03
2019-03-13T01:59:12.458Z,32.93
2019-03-13T02:01:40.244Z,32.80
2019-03-13T02:04:08.375Z,34.50
2019-03-13T02:06:36.160Z,33.53
2019-03-13T02:09:09.302Z,35.57
2019-03-13T02:11:40.164Z,36.20
2019-03-13T02:14:07.982Z,35.87
2019-03-13T02:16:35.773Z,38.37
2019-03-13T02:19:09.721Z,36.80
2019-03-13T02:21:34.999Z,35.90
2019-03-13T02:24:04.493Z,37.00
2019-03-13T02:26:38.247Z,37.23
2019-03-13T02:29:01.754Z,36.80
2019-03-13T02:31:29.546Z,38.80
2019-03-13T02:33:57.284Z,38.67
2019-03-13T02:36:25.210Z,38.53
2019-03-13T02:38:55.595Z,39.47
2019-03-13T02:41:23.396Z,38.53
2019-03-13T02:44:15.917Z,38.30
2019-03-13T02:46:43.987Z,37.97
2019-03-13T02:49:14.313Z,37.37
2019-03-13T02:51:42.081Z,38.17
2019-03-13T02:54:09.848Z,39.47
2019-03-13T02:56:37.622Z,38.60
2019-03-13T02:59:06.451Z,38.30
2019-03-13T03:01:52.193Z,37.73
2019-03-13T03:04:20.370Z,38.80
2019-03-13T03:06:48.448Z,38.00
2019-03-13T03:09:17.624Z,38.07
2019-03-13T03:11:45.604Z,35.33
2019-03-13T03:14:13.274Z,37.53
2019-03-13T03:16:40.993Z,37.07
2019-03-13T03:19:08.786Z,37.53
2019-03-13T03:21:36.503Z,37.33
2019-03-13T03:24:05.780Z,35.90
2019-03-13T03:26:33.590Z,35.73
2019-03-13T03:29:01.695Z,34.87
2019-03-13T03:31:29.463Z,36.13
2019-03-13T03:33:59.784Z,34.87
2019-03-13T03:36:27.900Z,35.10
2019-03-13T03:38:55.674Z,33.93
2019-03-13T03:41:23.507Z,33.90
2019-03-13T03:43:51.348Z,32.30
2019-03-13T03:46:20.594Z,32.10
2019-03-13T03:48:49.985Z,31.87
2019-03-13T03:51:17.586Z,32.30
2019-03-13T03:53:45.307Z,32.60
2019-03-13T03:56:13.026Z,29.80
2019-03-13T03:58:40.766Z,30.93
2019-03-13T04:01:09.725Z,30.67
2019-03-13T04:03:55.701Z,30.67
2019-03-13T04:06:29.825Z,29.23
2019-03-13T04:09:06.053Z,30.13
2019-03-13T04:11:33.722Z,29.70
2019-03-13T04:14:01.625Z,29.80
2019-03-13T04:16:29.273Z,27.87
2019-03-13T04:18:57.037Z,28.10
2019-03-13T04:21:24.715Z,27.10
2019-03-13T04:23:52.519Z,27.63
2019-03-13T04:26:21.486Z,28.33
2019-03-13T04:28:49.289Z,25.63
2019-03-13T04:31:19.366Z,27.80
2019-03-13T04:33:47.113Z,25.83
2019-03-13T04:36:16.697Z,26.23
2019-03-13T04:38:44.492Z,25.43
2019-03-13T04:41:12.396Z,25.33
2019-03-13T04:43:44.066Z,26.33
2019-03-13T04:46:16.041Z,25.00
2019-03-13T04:48:45.226Z,25.80
2019-03-13T04:51:12.875Z,25.77
2019-03-13T04:53:40.531Z,24.60
2019-03-13T04:56:08.081Z,24.70
2019-03-13T04:58:35.920Z,25.53
2019-03-13T05:01:03.645Z,24.20
2019-03-13T05:03:31.289Z,24.63
2019-03-13T05:06:02.830Z,22.77
2019-03-13T05:08:45.527Z,24.17
2019-03-13T05:11:13.073Z,23.40
2019-03-13T05:13:44.396Z,22.23
2019-03-13T05:16:12.014Z,23.03
2019-03-13T05:18:39.684Z,23.07
2019-03-13T05:21:07.378Z,23.83
2019-03-13T05:23:34.988Z,23.07
2019-03-13T05:26:02.544Z,21.83
2019-03-13T05:28:30.110Z,21.60
2019-03-13T05:30:57.892Z,21.63
2019-03-13T05:33:25.527Z,20.50
2019-03-13T05:35:53.188Z,21.83
2019-03-13T05:38:20.921Z,20.47
2019-03-13T05:40:48.758Z,22.93
2019-03-13T05:43:16.412Z,21.60
2019-03-13T05:45:44.633Z,21.93
2019-03-13T05:48:12.420Z,21.87
2019-03-13T05:50:40.204Z,21.37
2019-03-13T05:53:08.166Z,20.23
2019-03-13T05:55:36.337Z,18.87
2019-03-13T05:58:04.064Z,19.30
2019-03-13T06:00:31.941Z,18.80
2019-03-13T06:03:02.477Z,18.47
2019-03-13T06:05:30.522Z,17.93
2019-03-13T06:07:58.636Z,17.57
2019-03-13T06:10:27.676Z,17.73
2019-03-13T06:12:57.187Z,18.07
2019-03-13T06:15:25.120Z,17.70
2019-03-13T06:17:52.778Z,16.27
2019-03-13T06:20:20.517Z,18.10
2019-03-13T06:22:48.596Z,17.47
2019-03-13T06:25:16.840Z,18.03
2019-03-13T06:27:46.621Z,17.33
2019-03-13T06:30:15.696Z,17.23
2019-03-13T06:32:45.900Z,16.73
2019-03-13T06:35:16.439Z,16.43
2019-03-13T06:37:45.001Z,16.90
2019-03-13T06:40:17.415Z,18.00
2019-03-13T06:42:51.812Z,17.13
2019-03-13T06:45:23.480Z,17.73
2019-03-13T06:47:51.207Z,16.63
2019-03-13T06:50:19.154Z,16.83
2019-03-13T06:52:52.030Z,15.70
2019-03-13T06:55:19.714Z,16.50
2019-03-13T06:57:47.364Z,17.03
2019-03-13T07:00:54.326Z,16.80
2019-03-13T07:03:47.608Z,15.53
2019-03-13T07:06:50.793Z,16.03
2019-03-13T07:09:33.746Z,14.97
2019-03-13T07:12:19.416Z,15.10
2019-03-13T07:15:04.911Z,15.90
2019-03-13T07:17:50.581Z,14.97
2019-03-13T07:20:49.842Z,13.53
2019-03-13T07:23:38.326Z,15.10
2019-03-13T07:26:23.933Z,12.27
2019-03-13T07:29:12.296Z,13.23
2019-03-13T07:32:14.713Z,12.23
2019-03-13T07:35:00.634Z,12.13
2019-03-13T07:37:53.973Z,12.13
2019-03-13T07:40:39.638Z,12.27
2019-03-13T07:43:33.075Z,11.60
2019-03-13T07:46:11.529Z,11.47
2019-03-13T07:48:58.795Z,11.40
2019-03-13T07:51:32.930Z,11.57
2019-03-13T07:54:18.916Z,11.27
2019-03-13T07:57:09.255Z,10.80
2019-03-13T07:59:55.702Z,11.23
2019-03-13T08:02:51.847Z,11.43
2019-03-13T08:05:33.286Z,10.60
2019-03-13T08:08:23.615Z,11.73
2019-03-13T08:11:22.593Z,12.00
2019-03-13T08:14:08.584Z,11.90
2019-03-13T08:17:01.752Z,12.60
2019-03-13T08:20:00.947Z,11.43
2019-03-13T08:22:38.134Z,11.10
2019-03-13T08:25:23.740Z,11.33
2019-03-13T08:27:58.844Z,11.17
2019-03-13T08:30:41.829Z,11.10
2019-03-13T08:33:41.054Z,11.83
2019-03-13T08:36:41.152Z,11.60
2019-03-13T08:39:26.508Z,11.23
2019-03-13T08:42:13.779Z,12.47
2019-03-13T08:45:01.306Z,11.30
2019-03-13T08:47:38.795Z,11.60
2019-03-13T08:50:25.636Z,11.83
2019-03-13T08:53:11.098Z,12.03
2019-03-13T08:55:48.722Z,12.50
2019-03-13T08:58:44.973Z,11.70
2019-03-13T09:01:27.226Z,11.90
2019-03-13T09:04:17.309Z,11.27
2019-03-13T09:06:57.939Z,11.87
2019-03-13T09:09:38.445Z,12.20
2019-03-13T09:12:19.011Z,11.47
2019-03-13T09:15:20.983Z,11.33
2019-03-13T09:18:11.123Z,11.37
2019-03-13T09:21:07.633Z,11.23
2019-03-13T09:23:53.214Z,11.27
2019-03-13T09:26:39.017Z,11.30
2019-03-13T09:29:35.364Z,10.80
2019-03-13T09:32:21.443Z,11.97
2019-03-13T09:34:58.871Z,11.53
2019-03-13T09:38:03.597Z,10.53
2019-03-13T09:40:56.541Z,10.03
2019-03-13T09:43:44.217Z,10.43
2019-03-13T09:46:22.736Z,10.80
2019-03-13T09:49:04.056Z,10.60
2019-03-13T09:52:08.902Z,10.57
2019-03-13T09:55:14.408Z,11.10
2019-03-13T09:57:58.451Z,10.73
2019-03-13T10:00:48.512Z,9.87
2019-03-13T10:03:44.621Z,10.43
2019-03-13T10:06:43.871Z,11.17
2019-03-13T10:09:29.191Z,9.73
2019-03-13T10:12:24.613Z,11.37
2019-03-13T10:15:14.469Z,9.70
2019-03-13T10:17:48.968Z,9.17
2019-03-13T10:20:37.470Z,9.20
2019-03-13T10:23:33.981Z,8.83
2019-03-13T10:26:17.398Z,9.50
2019-03-13T10:28:55.830Z,10.10
2019-03-13T10:31:41.608Z,9.10
2019-03-13T10:34:31.941Z,8.00
2019-03-13T10:37:22.033Z,10.00
2019-03-13T10:40:00.474Z,10.53
2019-03-13T10:42:41.087Z,10.00
2019-03-13T10:45:30.876Z,10.40
2019-03-13T10:48:08.976Z,10.83
2019-03-13T10:50:47.005Z,10.90
2019-03-13T10:53:35.248Z,11.27
2019-03-13T10:56:25.515Z,11.90
2019-03-13T10:59:11.645Z,11.13
2019-03-13T11:01:46.032Z,12.13
2019-03-13T11:04:46.155Z,11.50
2019-03-13T11:07:22.147Z,11.33
2019-03-13T11:10:07.362Z,11.77
2019-03-13T11:13:03.519Z,12.10
2019-03-13T11:15:46.384Z,12.13
2019-03-13T11:18:46.229Z,12.07
2019-03-13T11:21:34.283Z,12.50
2019-03-13T11:24:10.826Z,11.47
2019-03-13T11:27:13.109Z,12.37
2019-03-13T11:29:50.117Z,11.80
2019-03-13T11:32:45.357Z,12.17
2019-03-13T11:35:41.680Z,12.90
2019-03-13T11:38:19.861Z,12.50
2019-03-13T11:41:03.532Z,12.37
2019-03-13T11:44:03.303Z,12.47
2019-03-13T11:46:49.447Z,12.77
2019-03-13T11:49:36.204Z,12.93
2019-03-13T11:52:26.750Z,13.37
2019-03-13T11:55:20.033Z,13.90
2019-03-13T11:58:07.159Z,13.23
2019-03-13T12:01:05.100Z,13.13
2019-03-13T12:03:50.710Z,14.20
2019-03-13T12:06:46.885Z,13.47
2019-03-13T12:09:37.116Z,14.20
2019-03-13T12:12:33.962Z,13.47
2019-03-13T12:15:39.425Z,14.97
2019-03-13T12:18:32.552Z,13.60
2019-03-13T12:21:18.464Z,13.40
2019-03-13T12:24:02.802Z,13.40
2019-03-13T12:26:39.495Z,14.80
2019-03-13T12:29:30.904Z,13.97
2019-03-13T12:32:15.641Z,14.27
2019-03-13T12:35:01.200Z,13.80
2019-03-13T12:37:46.824Z,14.80
2019-03-13T12:40:32.386Z,15.20
2019-03-13T12:43:18.138Z,14.33
2019-03-13T12:46:05.318Z,13.53
2019-03-13T12:48:49.121Z,14.00
2019-03-13T12:51:36.693Z,14.63
2019-03-13T12:54:29.916Z,13.60
2019-03-13T12:57:15.705Z,13.60
2019-03-13T13:00:15.414Z,13.50
2019-03-13T13:03:18.531Z,12.80
2019-03-13T13:06:16.270Z,12.87
2019-03-13T13:09:04.796Z,12.70
2019-03-13T13:11:50.887Z,12.43
2019-03-13T13:14:59.149Z,12.67
2019-03-13T13:17:34.139Z,12.70
2019-03-13T13:20:01.891Z,11.10
2019-03-13T13:22:29.613Z,11.97
2019-03-13T13:24:57.945Z,11.87
2019-03-13T13:27:25.713Z,11.67
2019-03-13T13:29:58.214Z,11.53
2019-03-13T13:32:26.064Z,11.70
2019-03-13T13:34:53.830Z,10.67
2019-03-13T13:37:21.622Z,10.80
2019-03-13T13:39:49.344Z,10.63
2019-03-13T13:42:17.146Z,10.70
2019-03-13T13:44:44.872Z,11.53
2019-03-13T13:47:13.123Z,11.17
2019-03-13T13:49:40.686Z,9.97
2019-03-13T13:52:08.289Z,9.73
2019-03-13T13:54:35.834Z,9.77
2019-03-13T13:57:03.427Z,9.87
2019-03-13T13:59:31.015Z,9.10
2019-03-13T14:01:58.709Z,7.97
2019-03-13T14:04:26.238Z,7.93
2019-03-13T14:06:53.889Z,8.10
2019-03-13T14:09:21.618Z,7.10
2019-03-13T14:11:49.298Z,7.90
2019-03-13T14:14:16.920Z,7.43
2019-03-13T14:16:44.557Z,7.37
2019-03-13T14:19:12.365Z,7.33
2019-03-13T14:21:40.042Z,6.80
2019-03-13T14:24:07.658Z,6.80
2019-03-13T14:26:35.186Z,6.50
2019-03-13T14:29:02.887Z,5.80
2019-03-13T14:31:30.626Z,5.37
2019-03-13T14:33:58.282Z,6.70
2019-03-13T14:36:26.001Z,6.73
2019-03-13T14:38:53.919Z,5.97
2019-03-13T14:41:21.604Z,6.50
2019-03-13T14:43:49.275Z,6.57
2019-03-13T14:46:21.154Z,6.90
2019-03-13T14:48:47.238Z,6.67
2019-03-13T14:51:14.892Z,6.33
2019-03-13T14:53:42.571Z,6.70
2019-03-13T14:56:10.227Z,7.43
2019-03-13T14:58:37.785Z,6.63
2019-03-13T15:01:05.486Z,6.90
2019-03-13T15:03:33.068Z,6.93
2019-03-13T15:06:04.061Z,6.93
2019-03-13T15:08:32.059Z,6.90
2019-03-13T15:11:03.405Z,6.60
2019-03-13T15:13:31.387Z,6.80
2019-03-13T15:15:59.190Z,6.70
2019-03-13T15:18:27.221Z,7.50
2019-03-13T15:20:55.034Z,6.67
2019-03-13T15:23:23.046Z,7.80
2019-03-13T15:25:50.742Z,7.13
2019-03-13T15:28:19.197Z,7.07
2019-03-13T15:30:47.454Z,7.87
2019-03-13T15:33:16.188Z,7.50
2019-03-13T15:35:46.944Z,7.80
2019-03-13T15:38:19.884Z,7.87
2019-03-13T15:40:48.261Z,7.73
2019-03-13T15:43:16.245Z,7.93
2019-03-13T15:45:44.909Z,8.20
2019-03-13T15:48:13.096Z,8.10
2019-03-13T15:50:42.146Z,8.27
2019-03-13T15:53:14.000Z,9.17
2019-03-13T15:55:41.717Z,9.40
2019-03-13T15:58:09.510Z,9.27
2019-03-13T16:00:37.242Z,9.07
2019-03-13T16:03:05.135Z,9.23
2019-03-13T16:05:32.876Z,9.90
2019-03-13T16:08:00.633Z,11.13
2019-03-13T16:10:28.262Z,11.47
2019-03-13T16:12:58.325Z,10.50
2019-03-13T16:15:27.708Z,10.30
2019-03-13T16:17:55.717Z,9.47
2019-03-13T16:20:23.580Z,9.60
2019-03-13T16:22:56.510Z,10.60
2019-03-13T16:25:24.278Z,9.87
2019-03-13T16:27:52.011Z,10.37
2019-03-13T16:30:20.855Z,10.47
2019-03-13T16:32:48.644Z,10.80
2019-03-13T16:35:16.510Z,10.40
2019-03-13T16:37:44.235Z,10.87
2019-03-13T16:40:13.486Z,11.33
2019-03-13T16:42:41.272Z,11.77
2019-03-13T16:45:10.029Z,12.30
2019-03-13T16:47:37.753Z,12.13
2019-03-13T16:50:06.466Z,12.70
2019-03-13T16:52:34.102Z,13.30
2019-03-13T16:55:01.983Z,15.50
2019-03-13T16:57:29.726Z,15.20
2019-03-13T17:00:00.865Z,14.80
2019-03-13T17:02:26.950Z,14.43
2019-03-13T17:05:07.786Z,12.60
2019-03-13T17:07:35.490Z,13.13
2019-03-13T17:10:03.439Z,12.77
2019-03-13T17:12:31.221Z,12.90
2019-03-13T17:14:58.844Z,13.57
2019-03-13T17:17:26.529Z,12.97
2019-03-13T17:19:54.174Z,16.10
2019-03-13T17:22:21.946Z,16.20
2019-03-13T17:24:50.772Z,15.13
2019-03-13T17:27:18.425Z,13.63
2019-03-13T17:29:46.174Z,14.60
2019-03-13T17:32:13.931Z,14.97
2019-03-13T17:34:47.344Z,14.40
2019-03-13T17:37:11.295Z,15.17
2019-03-13T17:39:49.766Z,15.40
2019-03-13T17:42:17.409Z,16.70
2019-03-13T17:44:45.122Z,15.37
2019-03-13T17:47:12.779Z,15.33
2019-03-13T17:49:40.468Z,16.47
2019-03-13T17:52:08.291Z,16.67
2019-03-13T17:54:36.220Z,16.63
2019-03-13T17:57:03.911Z,18.10
2019-03-13T17:59:31.799Z,18.57
2019-03-13T18:01:59.469Z,19.10
2019-03-13T18:04:27.207Z,19.00
2019-03-13T18:06:54.916Z,19.13
2019-03-13T18:09:22.541Z,20.20
2019-03-13T18:11:50.227Z,19.67
2019-03-13T18:14:17.904Z,18.90
2019-03-13T18:16:45.538Z,20.13
2019-03-13T18:19:13.220Z,19.43
2019-03-13T18:21:42.501Z,20.33
2019-03-13T18:24:10.533Z,20.50
2019-03-13T18:26:38.302Z,20.23
2019-03-13T18:29:05.910Z,19.83
2019-03-13T18:31:33.700Z,20.20
2019-03-13T18:34:01.289Z,22.03
2019-03-13T18:36:29.050Z,21.50
2019-03-13T18:38:56.821Z,22.37
2019-03-13T18:41:24.454Z,22.70
2019-03-13T18:43:52.117Z,22.43
2019-03-13T18:46:19.744Z,23.27
2019-03-13T18:48:47.421Z,23.33
2019-03-13T18:51:15.087Z,21.83
2019-03-13T18:53:42.974Z,23.37
2019-03-13T18:56:10.764Z,22.93
2019-03-13T18:58:38.516Z,23.10
2019-03-13T19:01:06.304Z,23.93
2019-03-13T19:03:34.007Z,22.53
2019-03-13T19:06:04.094Z,23.53
2019-03-13T19:08:31.938Z,24.57
2019-03-13T19:10:59.708Z,25.07
2019-03-13T19:13:27.593Z,25.20
2019-03-13T19:15:55.252Z,24.07
2019-03-13T19:18:23.008Z,25.70
2019-03-13T19:20:53.773Z,25.60
2019-03-13T19:23:20.347Z,26.90
2019-03-13T19:25:48.082Z,25.77
2019-03-13T19:28:15.835Z,25.60
2019-03-13T19:30:43.712Z,26.50
2019-03-13T19:33:11.606Z,27.43
2019-03-13T19:35:39.316Z,27.27
2019-03-13T19:38:07.085Z,27.60
2019-03-13T19:40:34.628Z,27.57
2019-03-13T19:43:02.353Z,28.43
2019-03-13T19:45:32.723Z,27.37
2019-03-13T19:48:01.487Z,27.67
2019-03-13T19:50:29.522Z,26.47
2019-03-13T19:52:57.353Z,27.30
2019-03-13T19:55:25.169Z,26.20
2019-03-13T19:57:52.928Z,26.30
2019-03-13T20:00:21.870Z,26.23
2019-03-13T20:02:59.531Z,25.73
2019-03-13T20:05:19.034Z,25.03
2019-03-13T20:07:46.769Z,25.03
2019-03-13T20:10:16.815Z,26.67
2019-03-13T20:12:44.590Z,25.93
2019-03-13T20:15:15.804Z,26.63
2019-03-13T20:17:43.808Z,26.57
2019-03-13T20:20:12.595Z,25.53
2019-03-13T20:22:41.290Z,25.10
2019-03-13T20:25:09.854Z,25.93
2019-03-13T20:27:37.524Z,26.57
2019-03-13T20:30:05.931Z,25.83
2019-03-13T20:32:33.686Z,25.33
2019-03-13T20:35:01.364Z,25.60
2019-03-13T20:37:31.428Z,26.67
2019-03-13T20:39:59.215Z,25.93
2019-03-13T20:42:28.999Z,26.53
2019-03-13T20:44:57.281Z,25.77
2019-03-13T20:47:25.026Z,24.10
2019-03-13T20:49:52.825Z,25.90
2019-03-13T20:52:20.543Z,25.47
2019-03-13T20:54:50.902Z,25.67
2019-03-13T20:57:18.671Z,25.67
2019-03-13T20:59:46.483Z,24.57
2019-03-13T21:02:15.678Z,25.13
2019-03-13T21:04:43.989Z,25.67
2019-03-13T21:07:11.632Z,26.07
2019-03-13T21:09:41.075Z,24.83
2019-03-13T21:12:08.772Z,25.50
2019-03-13T21:14:36.418Z,24.27
2019-03-13T21:17:04.231Z,25.27
2019-03-13T21:19:31.982Z,26.10
2019-03-13T21:21:59.733Z,26.70
2019-03-13T21:24:27.445Z,26.13
2019-03-13T21:26:55.325Z,25.17
2019-03-13T21:29:23.104Z,26.63
2019-03-13T21:31:50.823Z,25.50
2019-03-13T21:34:18.665Z,25.83
2019-03-13T21:36:46.403Z,26.80
2019-03-13T21:39:14.063Z,26.83
2019-03-13T21:41:42.006Z,27.07
2019-03-13T21:44:09.949Z,27.10
2019-03-13T21:46:37.782Z,29.03
2019-03-13T21:49:08.049Z,28.73
2019-03-13T21:51:35.183Z,27.30
2019-03-13T21:54:02.898Z,28.80
2019-03-13T21:56:30.775Z,28.53
2019-03-13T21:59:03.687Z,27.40
2019-03-13T22:01:31.398Z,28.43
2019-03-13T22:03:59.067Z,28.23
2019-03-13T22:06:29.062Z,29.33
2019-03-13T22:08:56.370Z,28.00
2019-03-13T22:11:24.087Z,28.93
2019-03-13T22:13:51.677Z,28.93
2019-03-13T22:16:19.446Z,27.37
2019-03-13T22:18:47.390Z,28.83
2019-03-13T22:21:15.288Z,29.43
2019-03-13T22:23:43.007Z,29.20
2019-03-13T22:26:10.762Z,30.40
2019-03-13T22:28:38.385Z,30.27
2019-03-13T22:31:06.382Z,30.13
2019-03-13T22:33:34.154Z,31.50
2019-03-13T22:36:01.991Z,30.27
2019-03-13T22:38:29.762Z,32.60
2019-03-13T22:40:57.417Z,32.00
2019-03-13T22:43:25.151Z,33.10
2019-03-13T22:45:52.872Z,32.80
2019-03-13T22:48:20.663Z,31.43
2019-03-13T22:50:48.375Z,32.47
2019-03-13T22:53:16.354Z,32.63
2019-03-13T22:55:43.977Z,33.33
2019-03-13T22:58:11.842Z,32.60
2019-03-13T23:01:02.061Z,33.17
2019-03-13T23:03:30.295Z,32.27
2019-03-13T23:05:58.761Z,30.83
2019-03-13T23:08:26.705Z,31.07
2019-03-13T23:10:54.368Z,31.47
2019-03-13T23:13:22.192Z,31.83
2019-03-13T23:15:50.047Z,30.37
2019-03-13T23:18:18.526Z,31.27
2019-03-13T23:20:46.447Z,31.37
2019-03-13T23:23:14.267Z,30.60
2019-03-13T23:25:42.004Z,31.80
2019-03-13T23:28:10.075Z,30.77
2019-03-13T23:30:38.017Z,30.80
2019-03-13T23:33:05.910Z,30.97
2019-03-13T23:35:33.732Z,29.43
2019-03-13T23:38:10.473Z,30.23
2019-03-13T23:40:34.124Z,29.43
2019-03-13T23:43:01.967Z,30.93
2019-03-13T23:45:32.722Z,29.93
2019-03-13T23:48:00.723Z,29.67
2019-03-13T23:50:29.030Z,29.10
2019-03-13T23:52:57.062Z,29.20
2019-03-13T23:55:25.009Z,28.03
2019-03-13T23:57:52.834Z,28.40
